createdAt,value
2023-04-24T00:02:58.501Z,71.45
2023-04-24T00:08:01.148Z,71.51
2023-04-24T00:13:03.311Z,71.42
2023-04-24T00:18:05.431Z,71.51
2023-04-24T00:23:07.724Z,71.56
2023-04-24T00:28:09.791Z,71.49
2023-04-24T00:33:11.676Z,71.54
2023-04-24T00:38:13.971Z,71.36
2023-04-24T00:43:18.260Z,71.61
2023-04-24T00:48:21.520Z,71.43
2023-04-24T00:53:23.448Z,70.94
2023-04-24T00:58:26.147Z,70.72
2023-04-24T01:03:32.808Z,70.50
2023-04-24T01:08:36.253Z,70.25
2023-04-24T01:13:39.618Z,70.23
2023-04-24T01:18:42.216Z,70.02
2023-04-24T01:23:47.271Z,69.97
2023-04-24T01:28:49.278Z,69.92
2023-04-24T01:33:52.294Z,69.92
2023-04-24T01:38:54.771Z,69.90
2023-04-24T01:43:59.301Z,69.96
2023-04-24T01:49:02.880Z,69.92
2023-04-24T01:54:04.726Z,69.79
2023-04-24T01:59:08.451Z,69.89
2023-04-24T02:04:10.472Z,69.68
2023-04-24T02:09:12.675Z,69.59
2023-04-24T02:14:15.326Z,69.35
2023-04-24T02:19:17.472Z,69.25
2023-04-24T02:24:19.321Z,69.27
2023-04-24T02:29:21.399Z,69.45
2023-04-24T02:34:25.100Z,69.37
2023-04-24T02:39:27.506Z,69.23
2023-04-24T02:44:29.869Z,69.15
2023-04-24T02:49:31.977Z,68.76
2023-04-24T02:54:33.854Z,68.54
2023-04-24T02:59:36.373Z,68.17
2023-04-24T03:04:38.474Z,68.21
2023-04-24T03:09:41.217Z,67.97
2023-04-24T03:14:44.085Z,68.06
2023-04-24T03:19:46.107Z,67.95
2023-04-24T03:24:48.448Z,67.97
2023-04-24T03:29:56.215Z,68.16
2023-04-24T03:35:01.839Z,68.47
2023-04-24T03:40:05.590Z,68.48
2023-04-24T03:45:10.819Z,68.90
2023-04-24T03:50:14.648Z,68.88
2023-04-24T03:55:17.432Z,68.94
2023-04-24T04:00:22.183Z,69.07
2023-04-24T04:05:28.026Z,69.14
2023-04-24T04:10:30.271Z,68.98
2023-04-24T04:15:33.075Z,68.69
2023-04-24T04:20:35.502Z,68.72
2023-04-24T04:25:37.570Z,68.62
2023-04-24T04:30:41.231Z,68.30
2023-04-24T04:35:44.780Z,68.42
2023-04-24T04:40:48.159Z,68.36
2023-04-24T04:45:52.855Z,68.14
2023-04-24T04:51:07.015Z,68.03
2023-04-24T04:56:09.105Z,68.00
2023-04-24T05:01:16.174Z,68.27
2023-04-24T05:06:23.801Z,68.13
2023-04-24T05:11:26.869Z,67.97
2023-04-24T05:16:32.260Z,67.74
2023-04-24T05:21:35.371Z,67.68
2023-04-24T05:26:37.439Z,67.90
2023-04-24T05:31:39.998Z,68.15
2023-04-24T05:36:42.204Z,68.62
2023-04-24T05:41:45.123Z,68.39
2023-04-24T05:46:47.127Z,67.89
2023-04-24T05:51:49.805Z,67.42
2023-04-24T05:56:52.536Z,66.75
2023-04-24T06:02:03.132Z,66.55
2023-04-24T06:07:05.766Z,65.99
2023-04-24T06:12:09.364Z,65.81
2023-04-24T06:17:25.300Z,65.16
2023-04-24T06:22:27.557Z,64.12
2023-04-24T06:27:29.487Z,63.79
2023-04-24T06:32:32.236Z,60.97
2023-04-24T06:37:35.326Z,57.99
2023-04-24T06:42:38.167Z,57.15
2023-04-24T06:47:43.792Z,55.65
2023-04-24T06:52:49.606Z,55.04
2023-04-24T06:57:51.535Z,54.44
2023-04-24T07:02:54.516Z,52.82
2023-04-24T07:07:56.616Z,52.24
2023-04-24T07:12:58.746Z,51.80
2023-04-24T07:18:03.339Z,51.14
2023-04-24T07:23:06.896Z,50.17
2023-04-24T07:28:09.041Z,50.77
2023-04-24T07:33:14.225Z,50.20
2023-04-24T07:38:16.411Z,50.43
2023-04-24T07:43:21.428Z,49.82
2023-04-24T07:48:23.552Z,49.24
2023-04-24T07:53:25.995Z,48.76
2023-04-24T07:58:27.946Z,48.54
2023-04-24T08:03:30.261Z,48.32
2023-04-24T08:08:32.394Z,48.18
2023-04-24T08:13:34.393Z,48.19
2023-04-24T08:18:37.135Z,48.34
2023-04-24T08:23:39.490Z,47.80
2023-04-24T08:28:41.386Z,47.22
2023-04-24T08:33:46.183Z,46.56
2023-04-24T08:38:48.320Z,46.97
2023-04-24T08:43:51.876Z,46.84
2023-04-24T08:48:54.304Z,46.89
2023-04-24T08:53:57.148Z,46.42
2023-04-24T08:58:59.088Z,46.49
2023-04-24T09:04:05.331Z,46.41
2023-04-24T09:09:09.274Z,46.50
2023-04-24T09:14:12.189Z,46.02
2023-04-24T09:19:14.381Z,46.02
2023-04-24T09:24:23.568Z,45.09
2023-04-24T09:29:25.901Z,45.29
2023-04-24T09:34:28.578Z,44.47
2023-04-24T09:39:30.432Z,44.47
2023-04-24T09:44:35.742Z,43.92
2023-04-24T09:49:40.301Z,43.02
2023-04-24T09:54:42.437Z,43.57
2023-04-24T09:59:46.922Z,43.31
2023-04-24T10:04:57.797Z,43.09
2023-04-24T10:10:00.813Z,42.68
2023-04-24T10:15:04.058Z,42.85
2023-04-24T10:20:07.727Z,42.69
2023-04-24T10:25:11.216Z,42.25
2023-04-24T10:30:14.863Z,41.84
2023-04-24T10:35:19.477Z,42.08
2023-04-24T10:40:28.330Z,42.16
2023-04-24T10:45:30.685Z,42.34
2023-04-24T10:50:53.278Z,43.03
2023-04-24T10:56:04.638Z,43.47
2023-04-24T11:01:07.233Z,44.35
2023-04-24T11:06:10.190Z,44.93
2023-04-24T11:11:14.586Z,44.82
2023-04-24T11:16:23.283Z,44.97
2023-04-24T11:21:26.124Z,45.25
2023-04-24T11:26:33.630Z,45.58
2023-04-24T11:31:37.228Z,45.93
2023-04-24T11:36:39.829Z,46.62
2023-04-24T11:41:42.153Z,46.49
2023-04-24T11:46:44.162Z,46.19
2023-04-24T11:51:53.166Z,45.83
2023-04-24T11:56:57.504Z,46.24
2023-04-24T12:01:59.484Z,46.68
2023-04-24T12:07:06.118Z,46.79
2023-04-24T12:12:07.985Z,47.21
2023-04-24T12:17:09.988Z,47.37
2023-04-24T12:22:12.256Z,47.38
2023-04-24T12:27:21.592Z,48.15
2023-04-24T12:32:23.839Z,48.46
2023-04-24T12:37:27.484Z,48.68
2023-04-24T12:42:31.846Z,49.29
2023-04-24T12:47:36.650Z,49.47
2023-04-24T12:52:39.991Z,49.19
2023-04-24T12:57:42.053Z,49.41
2023-04-24T13:02:44.345Z,49.31
2023-04-24T13:07:46.660Z,48.98
2023-04-24T13:12:48.504Z,49.31
2023-04-24T13:17:51.534Z,49.89
2023-04-24T13:22:54.373Z,50.18
2023-04-24T13:27:56.721Z,50.72
2023-04-24T13:32:58.718Z,51.01
2023-04-24T13:38:02.582Z,51.47
2023-04-24T13:43:04.597Z,51.31
2023-04-24T13:48:06.894Z,51.60
2023-04-24T13:53:09.101Z,51.82
2023-04-24T13:58:11.559Z,52.69
2023-04-24T14:03:13.629Z,53.50
2023-04-24T14:08:15.865Z,54.46
2023-04-24T14:13:18.442Z,55.59
2023-04-24T14:18:21.214Z,56.15
2023-04-24T14:23:23.095Z,56.74
2023-04-24T14:28:25.722Z,57.29
2023-04-24T14:33:27.524Z,58.11
2023-04-24T14:38:31.023Z,58.65
2023-04-24T14:43:33.807Z,58.51
2023-04-24T14:48:36.398Z,58.37
2023-04-24T14:53:38.345Z,58.19
2023-04-24T14:58:40.494Z,58.38
2023-04-24T15:03:42.704Z,58.70
2023-04-24T15:08:46.916Z,58.76
2023-04-24T15:13:50.970Z,58.93
2023-04-24T15:18:53.807Z,58.86
2023-04-24T15:23:57.061Z,59.54
2023-04-24T15:28:59.215Z,59.93
2023-04-24T15:34:01.096Z,60.69
2023-04-24T15:39:05.673Z,61.22
2023-04-24T15:44:09.388Z,61.69
2023-04-24T15:49:11.903Z,62.37
2023-04-24T15:54:14.633Z,62.76
2023-04-24T15:59:18.306Z,63.55
2023-04-24T16:04:20.369Z,64.18
2023-04-24T16:09:22.516Z,64.87
2023-04-24T16:14:25.601Z,65.44
2023-04-24T16:19:28.966Z,66.02
2023-04-24T16:24:31.230Z,66.51
2023-04-24T16:29:33.566Z,66.75
2023-04-24T16:34:35.353Z,66.98
2023-04-24T16:39:38.883Z,67.50
2023-04-24T16:44:42.094Z,67.71
2023-04-24T16:49:44.337Z,67.98
2023-04-24T16:54:46.237Z,68.48
2023-04-24T16:59:48.235Z,68.79
2023-04-24T17:04:50.066Z,69.14
2023-04-24T17:09:52.673Z,69.43
2023-04-24T17:14:54.490Z,69.76
2023-04-24T17:19:56.685Z,70.03
2023-04-24T17:24:58.817Z,70.26
2023-04-24T17:30:01.251Z,70.57
2023-04-24T17:35:03.638Z,70.61
2023-04-24T17:40:07.371Z,70.83
2023-04-24T17:45:10.096Z,71.26
2023-04-24T17:50:12.612Z,71.50
2023-04-24T17:55:15.068Z,71.76
2023-04-24T18:00:17.417Z,72.18
2023-04-24T18:05:19.258Z,72.60
2023-04-24T18:10:21.929Z,73.12
2023-04-24T18:15:24.543Z,73.60
2023-04-24T18:20:27.756Z,74.00
2023-04-24T18:25:29.928Z,74.44
2023-04-24T18:30:32.575Z,74.79
2023-04-24T18:35:34.438Z,75.28
2023-04-24T18:40:36.936Z,75.65
2023-04-24T18:45:38.910Z,75.98
2023-04-24T18:50:41.378Z,76.40
2023-04-24T18:55:43.452Z,76.59
2023-04-24T19:00:46.098Z,76.93
2023-04-24T19:05:48.066Z,77.21
2023-04-24T19:10:51.140Z,77.56
2023-04-24T19:15:53.069Z,77.85
2023-04-24T19:20:56.190Z,78.09
2023-04-24T19:25:58.154Z,78.33
2023-04-24T19:31:00.695Z,78.52
2023-04-24T19:36:02.779Z,78.78
2023-04-24T19:41:05.038Z,78.97
2023-04-24T19:46:07.037Z,79.15
2023-04-24T19:51:09.126Z,79.06
2023-04-24T19:56:11.108Z,79.43
2023-04-24T20:01:13.526Z,79.65
2023-04-24T20:06:15.501Z,80.10
2023-04-24T20:11:17.630Z,80.06
2023-04-24T20:16:19.575Z,80.28
2023-04-24T20:21:22.003Z,80.24
2023-04-24T20:26:23.961Z,80.10
2023-04-24T20:31:26.119Z,80.01
2023-04-24T20:36:28.649Z,80.32
2023-04-24T20:41:30.926Z,80.27
2023-04-24T20:46:33.576Z,80.50
2023-04-24T20:51:37.366Z,80.64
2023-04-24T20:56:39.539Z,80.95
2023-04-24T21:01:44.252Z,80.76
2023-04-24T21:06:47.947Z,81.10
2023-04-24T21:11:52.778Z,81.27
2023-04-24T21:16:58.514Z,81.24
2023-04-24T21:22:01.220Z,81.53
2023-04-24T21:27:03.630Z,81.85
2023-04-24T21:32:05.796Z,81.97
2023-04-24T21:37:07.654Z,81.82
2023-04-24T21:42:29.631Z,82.15
2023-04-24T21:47:38.832Z,82.31
2023-04-24T21:52:42.641Z,82.01
2023-04-24T21:57:44.933Z,82.34
2023-04-24T22:02:47.226Z,81.90
2023-04-24T22:07:50.797Z,82.21
2023-04-24T22:12:53.026Z,82.16
2023-04-24T22:17:54.773Z,82.29
2023-04-24T22:22:57.332Z,82.33
2023-04-24T22:27:59.419Z,82.61
2023-04-24T22:33:01.597Z,82.53
2023-04-24T22:38:04.106Z,82.70
2023-04-24T22:43:06.599Z,82.69
2023-04-24T22:48:08.572Z,82.57
2023-04-24T22:53:10.868Z,82.53
2023-04-24T22:58:12.828Z,82.75
2023-04-24T23:03:15.029Z,82.73
2023-04-24T23:08:17.397Z,82.99
2023-04-24T23:13:44.507Z,83.00
2023-04-24T23:18:46.974Z,82.87
2023-04-24T23:23:51.429Z,82.93
2023-04-24T23:28:53.637Z,82.94
2023-04-24T23:33:55.702Z,83.48
2023-04-24T23:38:59.775Z,83.26
2023-04-24T23:44:03.686Z,83.34
2023-04-24T23:49:07.530Z,83.26
2023-04-24T23:54:10.213Z,83.56
2023-04-24T23:59:12.413Z,83.61
